Ballantine, Montana
Current Conditions -  °F | °C
As of 4:53 AM on Tuesday 21 Oct 2014 (Local Time) from KBIL Reporting Station
Clear Clear  
Wind Chill: 55°   Ceiling: Unl
Heat Index: 55°   Visibility: 10mi
Dew Point: 28°   Wind: 15mph
Humidity: 35%   Direction: 240°WSW
Pressure: 29.75"   Gusts: NA
Location:  45.95°N, 108.15°W
Report Text: KBIL 211053Z 24013KT 10SM CLR 13/M02 A2975 RMK AO2 SLP047 T01281022
Loading
Personal Weather Stations






























Interactive Weather Map New forecast layout! Learn more

10-Day Weather Forecast

Advertisements
Track Severe Weather on mobile